Time;durP1;ratioP1;P1;durP2;ratioP2;P2;SDS_P1;SDS_P2;PMS_P1;PMS_P2;Temp;Humidity;BMP_temperature;BMP_pressure;BME280_temperature;BME280_humidity;BME280_pressure;Samples;Min_cycle;Max_cycle;Signal;HPM_P1;HPM_P2
2022/01/30 00:01:27;;;;;;;3.42;1.60;;;;;;;15.09;100.00;98402.69;5041980;28;20064;-55
2022/01/30 00:03:54;;;;;;;4.60;2.03;;;;;;;12.50;100.00;98399.19;5041662;28;20039;-56
2022/01/30 00:06:19;;;;;;;4.07;1.95;;;;;;;14.02;100.00;98396.69;5041436;28;20045;-56
2022/01/30 00:08:45;;;;;;;4.00;1.80;;;;;;;14.21;100.00;98403.66;5042191;28;20037;-56
2022/01/30 00:11:16;;;;;;;5.07;2.35;;;;;;;11.45;100.00;98399.00;5041715;28;20124;-57
2022/01/30 00:13:41;;;;;;;4.80;1.90;;;;;;;13.49;100.00;98411.44;5043002;28;20103;-55
2022/01/30 00:16:10;;;;;;;3.40;1.70;;;;;;;12.75;100.00;98407.75;5042040;28;20394;-56
2022/01/30 00:18:47;;;;;;;3.60;1.67;;;;;;;14.68;100.00;98413.56;5042212;28;20028;-56
2022/01/30 00:21:33;;;;;;;7.78;2.28;;;;;;;11.52;100.00;98424.00;5041878;28;20041;-57
2022/01/30 00:26:30;;;;;;;5.47;1.90;;;;;;;11.58;100.00;98413.34;5042643;28;20040;-56
2022/01/30 00:28:56;;;;;;;5.28;2.33;;;;;;;10.69;100.00;98421.78;5040529;28;20112;-57
2022/01/30 00:31:24;;;;;;;3.60;1.60;;;;;;;13.35;100.00;98423.47;5041547;28;20120;-56
2022/01/30 00:33:49;;;;;;;4.50;1.83;;;;;;;14.44;100.00;98413.84;5043175;28;20024;-57
2022/01/30 00:36:14;;;;;;;4.63;1.80;;;;;;;12.25;100.00;98414.19;5042112;28;20068;-56
2022/01/30 00:38:40;;;;;;;3.58;1.70;;;;;;;12.74;100.00;98422.59;5042416;28;20025;-55
2022/01/30 00:41:05;;;;;;;4.22;1.90;;;;;;;11.48;100.00;98418.03;5041952;28;20063;-54
2022/01/30 00:43:31;;;;;;;4.25;2.05;;;;;;;9.98;100.00;98404.13;5042329;28;20514;-56
2022/01/30 00:45:56;;;;;;;4.78;2.10;;;;;;;10.37;100.00;98395.06;5041687;28;20041;-55
2022/01/30 00:48:21;;;;;;;6.68;1.60;;;;;;;12.00;100.00;98415.19;5041773;28;20029;-56
2022/01/30 00:50:47;;;;;;;4.05;2.00;;;;;;;10.93;100.00;98394.81;5041558;28;20093;-55
2022/01/30 00:53:12;;;;;;;4.55;1.88;;;;;;;12.74;100.00;98406.91;5042131;28;20048;-55
2022/01/30 00:55:38;;;;;;;3.80;1.80;;;;;;;10.93;100.00;98410.47;5040601;28;20044;-55
2022/01/30 00:58:03;;;;;;;6.03;2.30;;;;;;;11.09;100.00;98423.00;5040783;28;20120;-56
2022/01/30 01:00:30;;;;;;;4.30;1.83;;;;;;;10.93;100.00;98426.13;5041962;28;20071;-56
2022/01/30 01:02:56;;;;;;;4.72;2.00;;;;;;;10.89;100.00;98450.66;5041843;28;20043;-55
2022/01/30 01:05:22;;;;;;;6.32;2.00;;;;;;;10.95;100.00;98463.50;5041539;28;20115;-56
2022/01/30 01:07:50;;;;;;;5.18;2.00;;;;;;;9.98;100.00;98465.78;5041013;28;20757;-56
2022/01/30 01:23:57;;;;;;;8.18;2.00;;;;;;;11.80;100.00;98454.28;5044484;28;20029;-55
2022/01/30 01:26:24;;;;;;;5.38;1.90;;;;;;;12.26;100.00;98436.81;5042209;28;20473;-56
2022/01/30 01:28:51;;;;;;;5.95;2.28;;;;;;;10.38;100.00;98443.69;5040905;28;20032;-56
2022/01/30 01:31:16;;;;;;;5.80;1.90;;;;;;;11.62;100.00;98446.25;5038972;28;20039;-56
2022/01/30 01:36:07;;;;;;;6.45;2.20;;;;;;;10.28;100.00;98447.50;5041479;28;20414;-54
2022/01/30 01:38:32;;;;;;;4.47;2.00;;;;;;;9.58;100.00;98435.75;5039290;28;20040;-54
2022/01/30 01:40:58;;;;;;;5.53;2.00;;;;;;;11.60;100.00;98442.88;5040349;28;20037;-55
2022/01/30 01:43:25;;;;;;;4.65;1.90;;;;;;;12.11;100.00;98433.06;5039108;28;20025;-56
2022/01/30 01:45:53;;;;;;;6.00;2.05;;;;;;;10.22;100.00;98433.75;5040833;28;20032;-55
2022/01/30 01:48:19;;;;;;;6.38;2.13;;;;;;;9.96;100.00;98426.78;5040448;28;20494;-56
2022/01/30 01:50:53;;;;;;;5.40;1.80;;;;;;;11.14;100.00;98423.69;5040492;28;20044;-57
2022/01/30 01:53:22;;;;;;;6.85;2.38;;;;;;;12.12;100.00;98425.16;5039998;28;20025;-57
2022/01/30 01:55:48;;;;;;;5.68;2.08;;;;;;;10.52;100.00;98417.16;5040453;28;20041;-57
2022/01/30 01:58:13;;;;;;;5.05;2.10;;;;;;;9.89;100.00;98413.97;5040187;28;20371;-58
2022/01/30 02:00:39;;;;;;;6.10;1.95;;;;;;;11.33;100.00;98408.19;5040228;28;20040;-57
2022/01/30 02:03:05;;;;;;;5.97;2.05;;;;;;;11.16;100.00;98399.22;5040251;28;20025;-55
2022/01/30 02:05:34;;;;;;;7.18;2.47;;;;;;;9.31;100.00;98417.44;5037496;28;20040;-55
2022/01/30 02:08:30;;;;;;;6.90;2.40;;;;;;;9.80;100.00;98413.38;5038932;28;20013;-55
2022/01/30 02:26:56;;;;;;;7.55;2.40;;;;;;;9.80;100.00;98395.13;5040262;28;20033;-54
2022/01/30 02:29:22;;;;;;;7.70;2.10;;;;;;;10.35;100.00;98389.06;5040981;28;20036;-56
2022/01/30 02:31:48;;;;;;;4.90;1.63;;;;;;;12.52;100.00;98401.75;5039870;28;20081;-56
2022/01/30 02:34:13;;;;;;;8.05;2.20;;;;;;;9.92;100.00;98390.41;5040802;28;20726;-55
2022/01/30 02:36:49;;;;;;;6.45;1.92;;;;;;;12.18;100.00;98408.34;5040363;28;20517;-55
2022/01/30 02:39:15;;;;;;;7.25;2.35;;;;;;;11.77;100.00;98408.22;5040292;28;20578;-55
2022/01/30 02:41:40;;;;;;;9.40;2.05;;;;;;;11.31;100.00;98416.06;5039927;28;20048;-57
2022/01/30 02:44:12;;;;;;;6.05;1.88;;;;;;;10.76;100.00;98412.84;5040689;28;20387;-55
2022/01/30 02:46:44;;;;;;;7.25;1.98;;;;;;;12.28;100.00;98424.53;5039872;28;20506;-55
2022/01/30 02:49:42;;;;;;;5.97;1.95;;;;;;;10.73;100.00;98424.25;5040999;28;20032;-56
2022/01/30 02:52:02;;;;;;;7.03;2.13;;;;;;;10.73;100.00;98423.38;5040528;28;20098;-54
2022/01/30 02:54:29;;;;;;;9.98;2.72;;;;;;;9.91;100.00;98422.59;5044875;28;20028;-56
2022/01/30 02:56:55;;;;;;;4.38;1.63;;;;;;;11.15;100.00;98430.59;5043888;28;20063;-56
2022/01/30 02:59:21;;;;;;;6.60;1.95;;;;;;;11.24;100.00;98429.41;5044888;28;20860;-54
2022/01/30 03:01:46;;;;;;;5.18;1.95;;;;;;;12.26;100.00;98426.34;5042478;28;20041;-57
2022/01/30 03:04:12;;;;;;;6.38;2.20;;;;;;;10.93;100.00;98431.34;5044904;28;20025;-55
2022/01/30 03:06:37;;;;;;;11.23;2.45;;;;;;;10.84;100.00;98416.03;5044151;28;20037;-54
2022/01/30 03:09:06;;;;;;;9.65;2.13;;;;;;;10.94;100.00;98422.63;5043085;28;20036;-54
2022/01/30 03:11:31;;;;;;;8.48;2.42;;;;;;;10.09;100.00;98421.16;5030509;28;20072;-56
2022/01/30 03:13:57;;;;;;;6.22;2.17;;;;;;;11.50;100.00;98431.03;5044392;28;20132;-54
2022/01/30 03:16:22;;;;;;;7.20;2.25;;;;;;;11.36;100.00;98414.13;5043796;28;20037;-56
2022/01/30 03:18:48;;;;;;;4.72;1.85;;;;;;;13.05;100.00;98427.34;5044492;28;20371;-56
2022/01/30 03:21:14;;;;;;;5.18;1.88;;;;;;;14.49;100.00;98428.53;5043344;28;20037;-56
2022/01/30 03:23:40;;;;;;;6.70;2.42;;;;;;;12.27;100.00;98433.28;5044316;28;20090;-54
2022/01/30 03:26:06;;;;;;;7.25;2.28;;;;;;;10.17;100.00;98445.22;5043467;28;20463;-55
2022/01/30 03:28:32;;;;;;;5.18;1.77;;;;;;;13.07;100.00;98440.38;5043859;28;20021;-57
2022/01/30 03:31:02;;;;;;;6.40;1.95;;;;;;;13.27;100.00;98437.72;5043392;28;20045;-55
2022/01/30 03:33:28;;;;;;;6.70;2.30;;;;;;;11.67;100.00;98433.88;5044087;28;20109;-56
2022/01/30 03:35:54;;;;;;;7.45;2.10;;;;;;;11.96;100.00;98431.91;5043462;28;20151;-54
2022/01/30 03:38:20;;;;;;;5.05;1.80;;;;;;;11.09;100.00;98441.28;5043379;28;20375;-55
2022/01/30 03:40:47;;;;;;;10.25;3.00;;;;;;;9.66;100.00;98449.41;5042658;28;20713;-56
2022/01/30 03:43:13;;;;;;;6.50;2.00;;;;;;;11.73;100.00;98444.09;5043152;28;20114;-56
2022/01/30 03:45:39;;;;;;;10.18;2.60;;;;;;;10.65;100.00;98443.69;5043188;28;20057;-56
2022/01/30 03:48:04;;;;;;;9.25;2.63;;;;;;;10.66;100.00;98447.97;5043805;28;20032;-54
2022/01/30 03:50:30;;;;;;;6.32;1.83;;;;;;;11.41;100.00;98447.06;5042977;28;20205;-55
2022/01/30 03:52:56;;;;;;;11.52;2.50;;;;;;;10.29;100.00;98443.97;5042841;28;20418;-56
2022/01/30 03:55:23;;;;;;;4.57;1.70;;;;;;;12.89;100.00;98448.09;5042973;28;20621;-54
2022/01/30 03:57:48;;;;;;;7.85;2.45;;;;;;;10.36;100.00;98445.50;5043256;28;20033;-56
2022/01/30 04:00:14;;;;;;;7.10;1.88;;;;;;;10.89;100.00;98442.81;5043249;28;20028;-56
2022/01/30 04:02:40;;;;;;;7.10;2.13;;;;;;;11.47;100.00;98457.28;5042749;28;20447;-55
2022/01/30 04:05:06;;;;;;;8.23;2.50;;;;;;;9.93;100.00;98457.28;5041389;28;20029;-54
2022/01/30 04:07:32;;;;;;;6.82;2.00;;;;;;;10.36;100.00;98468.97;5043512;28;20434;-54
2022/01/30 04:09:58;;;;;;;11.20;3.17;;;;;;;10.29;100.00;98464.81;5042995;28;20557;-56
2022/01/30 04:12:24;;;;;;;8.27;2.10;;;;;;;10.51;100.00;98473.69;5042165;28;20043;-55
2022/01/30 04:14:50;;;;;;;9.70;2.55;;;;;;;10.76;100.00;98472.88;5043164;28;20029;-54
2022/01/30 04:17:19;;;;;;;12.32;2.92;;;;;;;10.27;100.00;98477.06;5042769;28;20043;-55
2022/01/30 04:19:44;;;;;;;13.63;2.78;;;;;;;9.99;100.00;98464.91;5042940;28;20503;-56
2022/01/30 04:22:10;;;;;;;8.13;2.75;;;;;;;9.99;100.00;98473.56;5042278;28;20029;-56
2022/01/30 04:24:35;;;;;;;11.50;2.83;;;;;;;10.81;100.00;98463.13;5042790;28;20151;-56
2022/01/30 04:27:00;;;;;;;7.82;2.22;;;;;;;11.14;100.00;98465.47;5042528;28;20116;-56
2022/01/30 04:29:26;;;;;;;10.50;3.00;;;;;;;9.71;100.00;98468.34;5043158;28;20048;-55
2022/01/30 04:31:51;;;;;;;11.95;2.65;;;;;;;10.58;100.00;98467.34;5042226;28;20044;-56
2022/01/30 04:34:18;;;;;;;5.80;2.10;;;;;;;9.98;100.00;98477.09;5042872;28;20027;-56
2022/01/30 04:36:59;;;;;;;13.90;3.30;;;;;;;9.65;100.00;98486.78;5042105;28;20048;-55
2022/01/30 05:05:51;;;;;;;4.90;1.88;;;;;;;11.27;100.00;98476.31;5041708;28;20040;-57
2022/01/30 05:08:16;;;;;;;10.30;2.55;;;;;;;11.93;100.00;98481.72;5041632;28;20025;-57
2022/01/30 05:10:42;;;;;;;9.30;2.38;;;;;;;9.73;100.00;98489.16;5041065;28;20045;-55
2022/01/30 05:13:11;;;;;;;11.02;2.83;;;;;;;10.75;100.00;98486.81;5042180;28;20032;-54
2022/01/30 05:15:37;;;;;;;13.52;3.17;;;;;;;10.79;100.00;98476.22;5041291;28;20029;-57
2022/01/30 05:18:03;;;;;;;5.80;1.90;;;;;;;10.69;100.00;98492.22;5042235;28;20043;-56
2022/01/30 05:20:29;;;;;;;12.10;2.95;;;;;;;9.80;100.00;98490.69;5041758;28;20040;-54
2022/01/30 05:22:56;;;;;;;8.27;2.30;;;;;;;9.71;100.00;98486.59;5041501;28;20025;-57
2022/01/30 05:25:21;;;;;;;11.27;2.60;;;;;;;10.58;100.00;98493.44;5040023;28;20120;-54
2022/01/30 05:27:47;;;;;;;7.20;2.20;;;;;;;12.70;100.00;98499.53;5041935;28;20024;-57
2022/01/30 05:30:13;;;;;;;10.93;2.33;;;;;;;11.28;100.00;98504.13;5041090;28;20033;-57
2022/01/30 05:32:39;;;;;;;12.45;2.78;;;;;;;9.95;100.00;98499.78;5040983;28;20082;-56
2022/01/30 05:35:04;;;;;;;10.60;2.60;;;;;;;10.34;100.00;98509.91;5039709;28;20036;-56
2022/01/30 05:37:30;;;;;;;16.42;2.95;;;;;;;9.41;100.00;98512.63;5041439;28;20029;-55
2022/01/30 05:39:56;;;;;;;12.30;3.25;;;;;;;9.88;100.00;98506.91;5041260;28;20017;-55
2022/01/30 05:42:23;;;;;;;8.55;2.42;;;;;;;11.51;100.00;98526.81;5040785;28;20072;-57
2022/01/30 05:45:10;;;;;;;11.93;2.83;;;;;;;10.19;100.00;98511.19;5041541;28;20090;-55
2022/01/30 05:47:43;;;;;;;7.85;2.40;;;;;;;10.90;100.00;98520.22;5040866;28;20116;-55
2022/01/30 05:50:09;;;;;;;10.88;2.97;;;;;;;9.65;100.00;98526.69;5040692;28;20048;-56
2022/01/30 05:52:35;;;;;;;12.23;2.47;;;;;;;10.47;100.00;98529.44;5041166;28;20075;-56
2022/01/30 05:55:00;;;;;;;13.45;3.40;;;;;;;9.60;100.00;98527.72;5040150;28;20029;-55
2022/01/30 05:57:27;;;;;;;6.63;2.47;;;;;;;12.11;100.00;98538.53;5040667;28;20044;-54
2022/01/30 05:59:52;;;;;;;8.80;2.53;;;;;;;13.00;100.00;98533.22;5041452;28;20031;-55
2022/01/30 06:02:18;;;;;;;6.47;2.08;;;;;;;11.63;100.00;98515.03;5040255;28;20068;-56
2022/01/30 06:04:43;;;;;;;7.78;2.30;;;;;;;11.85;100.00;98530.78;5040997;28;20071;-55
2022/01/30 06:07:10;;;;;;;11.80;2.90;;;;;;;9.88;100.00;98537.34;5040901;28;20068;-56
2022/01/30 06:09:36;;;;;;;9.43;2.20;;;;;;;11.33;100.00;98534.38;5041461;28;20033;-56
2022/01/30 06:12:01;;;;;;;7.78;2.33;;;;;;;11.02;100.00;98536.38;5040141;28;20120;-56
2022/01/30 06:14:27;;;;;;;4.85;1.77;;;;;;;12.75;100.00;98536.84;5041236;28;20025;-56
2022/01/30 06:16:53;;;;;;;9.25;2.55;;;;;;;10.50;100.00;98533.75;5040778;28;20738;-56
2022/01/30 06:19:19;;;;;;;5.20;1.85;;;;;;;12.41;100.00;98546.06;5040883;28;20033;-56
2022/01/30 06:21:45;;;;;;;7.35;2.13;;;;;;;13.29;100.00;98551.16;5040210;28;20029;-56
2022/01/30 06:24:11;;;;;;;6.70;2.22;;;;;;;10.91;100.00;98542.78;5040809;28;20033;-55
2022/01/30 06:26:36;;;;;;;8.65;2.35;;;;;;;10.16;100.00;98538.22;5039935;28;20044;-57
2022/01/30 06:29:02;;;;;;;6.88;1.88;;;;;;;12.10;100.00;98539.41;5041158;28;20029;-55
2022/01/30 06:31:27;;;;;;;10.18;2.78;;;;;;;9.83;100.00;98540.94;5039820;28;21046;-55
2022/01/30 06:33:53;;;;;;;10.13;2.40;;;;;;;10.87;100.00;98530.75;5040896;28;20043;-56
2022/01/30 06:36:19;;;;;;;14.30;2.38;;;;;;;9.65;100.00;98536.28;5040674;28;20041;-56
2022/01/30 06:38:44;;;;;;;6.82;2.25;;;;;;;11.05;100.00;98549.31;5040705;28;20086;-57
2022/01/30 06:41:10;;;;;;;8.15;2.22;;;;;;;11.99;100.00;98557.28;5039845;28;20044;-55
2022/01/30 06:43:35;;;;;;;9.90;2.58;;;;;;;9.97;100.00;98550.09;5040943;28;20036;-56
2022/01/30 06:46:02;;;;;;;11.45;2.70;;;;;;;10.10;100.00;98553.19;5040208;28;20426;-56
2022/01/30 06:48:27;;;;;;;6.63;1.90;;;;;;;12.74;100.00;98550.88;5041206;28;20068;-57
2022/01/30 06:50:52;;;;;;;12.35;3.15;;;;;;;8.93;100.00;98546.84;5040184;28;20642;-56
2022/01/30 06:53:18;;;;;;;14.98;3.05;;;;;;;8.83;100.00;98550.59;5040603;28;20522;-56
2022/01/30 06:55:43;;;;;;;8.05;2.13;;;;;;;10.05;100.00;98561.13;5040354;28;20040;-57
2022/01/30 06:58:09;;;;;;;9.00;2.90;;;;;;;8.72;100.00;98555.22;5040683;28;20025;-56
2022/01/30 07:00:36;;;;;;;11.70;2.70;;;;;;;8.80;100.00;98561.06;5040144;28;20037;-57
2022/01/30 07:03:02;;;;;;;6.50;2.00;;;;;;;9.88;100.00;98569.47;5054646;28;20036;-56
2022/01/30 07:05:27;;;;;;;5.35;1.90;;;;;;;11.48;100.00;98573.94;5040291;28;20033;-55
2022/01/30 07:07:53;;;;;;;12.02;2.80;;;;;;;9.60;100.00;98561.59;5039315;28;20398;-57
2022/01/30 07:10:19;;;;;;;13.35;2.70;;;;;;;10.42;100.00;98557.44;5038296;28;20033;-58
2022/01/30 07:12:45;;;;;;;10.70;2.30;;;;;;;10.34;100.00;98562.03;5040491;28;20025;-56
2022/01/30 07:15:10;;;;;;;8.60;2.40;;;;;;;8.83;100.00;98555.81;5040209;28;20047;-56
2022/01/30 07:17:35;;;;;;;10.50;2.50;;;;;;;11.06;100.00;98570.13;5040329;28;20061;-55
2022/01/30 07:20:01;;;;;;;9.10;2.55;;;;;;;10.60;100.00;98561.22;5039025;28;20025;-58
2022/01/30 07:22:29;;;;;;;10.73;2.80;;;;;;;8.70;100.00;98557.00;5039787;28;20123;-55
2022/01/30 07:24:55;;;;;;;10.38;2.65;;;;;;;11.35;100.00;98565.69;5040332;28;20027;-55
2022/01/30 07:27:21;;;;;;;9.23;2.72;;;;;;;9.56;100.00;98565.19;5040027;28;20115;-57
2022/01/30 07:29:46;;;;;;;8.90;2.50;;;;;;;9.40;100.00;98568.19;5040353;28;20493;-55
2022/01/30 07:32:11;;;;;;;8.05;2.33;;;;;;;10.91;100.00;98579.34;5039786;28;20418;-56
2022/01/30 07:34:37;;;;;;;11.52;2.22;;;;;;;10.55;100.00;98591.81;5040686;28;20108;-57
2022/01/30 07:37:03;;;;;;;11.48;2.65;;;;;;;8.72;100.00;98599.44;5039624;28;20418;-55
2022/01/30 07:39:30;;;;;;;11.18;2.88;;;;;;;7.84;100.00;98609.97;5043561;28;20032;-56
2022/01/30 07:41:56;;;;;;;12.45;3.00;;;;;;;9.03;100.00;98621.19;5042863;28;20032;-57
2022/01/30 07:44:22;;;;;;;13.65;3.50;;;;;;;9.26;100.00;98623.25;5044152;28;20025;-56
2022/01/30 07:46:47;;;;;;;10.88;2.58;;;;;;;10.03;100.00;98635.91;5043433;28;20095;-56
2022/01/30 07:49:13;;;;;;;14.45;2.90;;;;;;;9.43;100.00;98632.38;5044116;28;20016;-57
2022/01/30 07:51:38;;;;;;;9.63;2.33;;;;;;;9.61;100.00;98623.19;5042593;28;20037;-55
2022/01/30 07:54:04;;;;;;;10.63;2.60;;;;;;;9.96;100.00;98623.94;5043405;28;20580;-54
2022/01/30 07:56:29;;;;;;;7.18;2.42;;;;;;;12.95;100.00;98624.19;5042925;28;20156;-56
2022/01/30 07:58:55;;;;;;;7.85;2.22;;;;;;;12.91;100.00;98608.59;5043112;28;20071;-55
2022/01/30 08:01:20;;;;;;;8.43;2.30;;;;;;;12.45;100.00;98605.22;5042513;28;20079;-55
2022/01/30 08:03:46;;;;;;;6.93;1.98;;;;;;;12.51;100.00;98610.19;5043366;28;20410;-56
2022/01/30 08:06:11;;;;;;;9.15;2.30;;;;;;;12.33;100.00;98622.25;5042799;28;20120;-56
2022/01/30 08:08:36;;;;;;;11.23;2.45;;;;;;;10.74;100.00;98618.19;5043225;28;20052;-55
2022/01/30 08:11:02;;;;;;;9.13;2.28;;;;;;;10.75;100.00;98627.69;5041753;28;20044;-55
2022/01/30 08:13:27;;;;;;;7.75;2.50;;;;;;;12.18;100.00;98612.34;5043544;28;20025;-56
2022/01/30 08:15:53;;;;;;;10.73;2.78;;;;;;;11.07;100.00;98621.44;5042628;28;20033;-56
2022/01/30 08:18:18;;;;;;;6.25;2.08;;;;;;;12.43;100.00;98632.34;5043203;28;20566;-56
2022/01/30 08:20:43;;;;;;;7.32;2.40;;;;;;;12.22;100.00;98623.53;5042646;28;20037;-55
2022/01/30 08:23:14;;;;;;;7.53;2.60;;;;;;;12.50;100.00;98624.19;5042928;28;20033;-55
2022/01/30 08:25:40;;;;;;;7.03;2.28;;;;;;;11.87;100.00;98628.28;5042584;28;20067;-55
2022/01/30 08:28:06;;;;;;;10.35;2.70;;;;;;;10.79;100.00;98626.72;5041506;28;20013;-54
2022/01/30 08:30:31;;;;;;;12.10;2.78;;;;;;;11.53;100.00;98619.88;5042271;28;20087;-56
2022/01/30 08:33:00;;;;;;;8.80;2.63;;;;;;;12.68;100.00;98620.03;5042907;28;20025;-56
2022/01/30 08:35:26;;;;;;;11.20;2.83;;;;;;;10.66;100.00;98620.16;5042366;28;20055;-58
2022/01/30 08:37:51;;;;;;;6.72;2.15;;;;;;;13.89;100.00;98621.09;5042852;28;20083;-57
2022/01/30 08:40:19;;;;;;;10.55;2.38;;;;;;;11.66;100.00;98620.31;5042170;28;20032;-54
2022/01/30 08:42:45;;;;;;;5.63;1.77;;;;;;;11.14;100.00;98616.91;5042452;28;20027;-55
2022/01/30 08:45:12;;;;;;;13.80;3.15;;;;;;;11.00;100.00;98626.00;5042255;28;20130;-55
2022/01/30 08:47:39;;;;;;;10.13;2.78;;;;;;;13.21;100.00;98631.81;5042848;28;20021;-55
2022/01/30 08:50:06;;;;;;;8.65;1.92;;;;;;;13.89;100.00;98634.19;5042004;28;20494;-57
2022/01/30 08:52:31;;;;;;;7.65;2.50;;;;;;;11.41;100.00;98641.19;5041624;28;20071;-54
2022/01/30 08:54:57;;;;;;;8.35;2.63;;;;;;;11.57;100.00;98631.94;5042633;28;20502;-55
2022/01/30 08:57:22;;;;;;;9.10;2.45;;;;;;;11.58;100.00;98643.25;5042012;28;20124;-57
2022/01/30 08:59:47;;;;;;;8.70;2.15;;;;;;;14.54;100.00;98641.75;5042861;28;20040;-56
2022/01/30 09:02:13;;;;;;;7.75;2.00;;;;;;;12.50;100.00;98639.91;5041736;28;20087;-56
2022/01/30 09:04:38;;;;;;;6.50;2.17;;;;;;;14.03;100.00;98651.97;5042909;28;20167;-56
2022/01/30 09:07:04;;;;;;;5.38;2.08;;;;;;;15.15;100.00;98644.09;5042211;28;20104;-55
2022/01/30 09:09:30;;;;;;;12.30;2.80;;;;;;;10.74;100.00;98660.78;5040691;28;20612;-56
2022/01/30 09:11:59;;;;;;;7.72;2.22;;;;;;;12.34;100.00;98657.09;5041221;28;20518;-54
2022/01/30 09:14:25;;;;;;;7.13;2.35;;;;;;;11.99;100.00;98668.88;5042589;28;20107;-54
2022/01/30 09:16:51;;;;;;;13.65;3.17;;;;;;;11.18;100.00;98665.50;5041102;28;20037;-54
2022/01/30 09:19:16;;;;;;;8.15;2.40;;;;;;;10.53;100.00;98677.97;5042448;28;20445;-53
2022/01/30 09:21:42;;;;;;;9.30;2.60;;;;;;;13.53;100.00;98678.59;5041116;28;20128;-54
2022/01/30 09:24:07;;;;;;;10.52;2.20;;;;;;;12.83;100.00;98676.16;5041507;28;20020;-54
2022/01/30 09:26:33;;;;;;;7.10;2.47;;;;;;;11.52;100.00;98672.19;5039862;28;20047;-57
2022/01/30 09:28:58;;;;;;;8.65;2.20;;;;;;;12.89;100.00;98667.19;5041900;28;20389;-54
2022/01/30 09:31:23;;;;;;;6.28;2.13;;;;;;;13.64;100.00;98695.59;5040451;28;20132;-55
2022/01/30 09:33:49;;;;;;;8.07;2.38;;;;;;;11.69;100.00;98682.06;5041898;28;20048;-56
2022/01/30 09:36:15;;;;;;;10.88;3.30;;;;;;;11.09;100.00;98687.53;5041182;28;20481;-56
2022/01/30 09:38:41;;;;;;;5.00;1.90;;;;;;;15.18;100.00;98686.00;5041747;28;20076;-57
2022/01/30 09:41:08;;;;;;;8.50;2.55;;;;;;;13.20;100.00;98685.16;5040437;28;20044;-57
2022/01/30 09:43:35;;;;;;;8.10;2.20;;;;;;;12.61;100.00;98693.56;5040356;28;20024;-56
2022/01/30 09:46:02;;;;;;;8.55;2.15;;;;;;;14.43;100.00;98703.50;5040817;28;20041;-54
2022/01/30 09:48:28;;;;;;;7.47;2.10;;;;;;;11.81;100.00;98697.31;5041475;28;20511;-54
2022/01/30 09:50:54;;;;;;;12.07;2.13;;;;;;;10.87;100.00;98718.66;5040836;28;20051;-54
2022/01/30 09:53:20;;;;;;;7.15;2.33;;;;;;;13.58;100.00;98719.44;5041165;28;20028;-56
2022/01/30 09:55:45;;;;;;;9.68;2.75;;;;;;;13.04;100.00;98718.09;5040518;28;20037;-54
2022/01/30 09:58:11;;;;;;;10.43;2.75;;;;;;;11.72;100.00;98719.38;5041667;28;20032;-55
2022/01/30 10:00:36;;;;;;;6.47;2.20;;;;;;;14.12;100.00;98725.00;5040755;28;20036;-54
2022/01/30 10:03:01;;;;;;;10.50;2.65;;;;;;;10.86;100.00;98726.53;5040178;28;20029;-55
2022/01/30 10:05:32;;;;;;;9.32;2.65;;;;;;;12.33;100.00;98741.69;5040513;28;20124;-54
2022/01/30 10:07:58;;;;;;;7.32;1.92;;;;;;;13.10;100.00;98738.81;5041447;28;20066;-54
2022/01/30 10:10:26;;;;;;;7.72;2.45;;;;;;;15.10;100.00;98743.31;5040550;28;20029;-56
2022/01/30 10:13:09;;;;;;;10.20;2.67;;;;;;;13.54;100.00;98744.06;5040726;28;20024;-56
2022/01/30 10:15:56;;;;;;;9.93;2.63;;;;;;;11.25;100.00;98741.84;5040842;28;20032;-58
2022/01/30 10:18:22;;;;;;;11.27;2.90;;;;;;;10.67;100.00;98754.94;5039429;28;20025;-54
2022/01/30 10:20:48;;;;;;;8.57;2.30;;;;;;;13.31;100.00;98758.09;5052346;28;20041;-56
2022/01/30 10:23:14;;;;;;;9.48;2.67;;;;;;;10.90;100.00;98765.56;5040306;28;20036;-54
2022/01/30 10:25:51;;;;;;;7.22;2.28;;;;;;;12.09;100.00;98756.50;5040513;28;20459;-54
2022/01/30 10:28:30;;;;;;;11.20;2.63;;;;;;;12.40;100.00;98758.88;5041110;28;20029;-54
2022/01/30 10:31:07;;;;;;;8.65;2.35;;;;;;;13.08;100.00;98745.88;5040042;28;20049;-54
2022/01/30 10:33:46;;;;;;;7.50;2.38;;;;;;;10.56;100.00;98740.44;5041096;28;20531;-54
2022/01/30 10:36:22;;;;;;;8.23;2.47;;;;;;;11.76;100.00;98744.53;5039744;28;20041;-55
2022/01/30 10:38:59;;;;;;;8.15;2.20;;;;;;;13.78;100.00;98738.72;5039211;28;20083;-54
2022/01/30 10:41:34;;;;;;;9.95;2.47;;;;;;;9.68;100.00;98749.75;5040143;28;20088;-55
2022/01/30 10:44:04;;;;;;;7.50;2.25;;;;;;;12.59;100.00;98758.22;5041180;28;20055;-54
2022/01/30 10:46:31;;;;;;;11.15;2.97;;;;;;;10.56;100.00;98758.72;5040109;28;20053;-55
2022/01/30 10:49:00;;;;;;;9.18;2.40;;;;;;;10.97;100.00;98772.31;5040673;28;20025;-55
2022/01/30 10:51:27;;;;;;;11.30;2.85;;;;;;;10.07;100.00;98775.69;5039662;28;20044;-54
2022/01/30 10:53:53;;;;;;;10.13;2.53;;;;;;;11.14;100.00;98789.22;5040665;28;20025;-56
2022/01/30 10:56:26;;;;;;;9.60;2.67;;;;;;;11.63;100.00;98787.63;5039994;28;20392;-54
2022/01/30 10:59:08;;;;;;;12.80;2.58;;;;;;;9.62;100.00;98796.81;5039259;28;20586;-55
2022/01/30 11:01:34;;;;;;;;;;;;;;;10.40;100.00;98780.91;5040411;28;20045;-53
2022/01/30 11:04:02;;;;;;;9.15;2.47;;;;;;;10.07;100.00;98791.31;5040323;28;19921;-56
2022/01/30 11:06:29;;;;;;;11.38;2.58;;;;;;;10.31;100.00;98781.16;5040169;28;20041;-57
2022/01/30 11:09:05;;;;;;;13.85;3.90;;;;;;;9.31;100.00;98787.13;5036094;28;20113;-53
2022/01/30 11:11:39;;;;;;;11.23;3.00;;;;;;;9.94;100.00;98792.53;5034856;28;20041;-56
2022/01/30 11:19:17;;;;;;;8.23;2.42;;;;;;;13.46;100.00;98794.16;5044394;28;20086;-55
2022/01/30 11:21:47;;;;;;;9.88;2.60;;;;;;;12.62;100.00;98803.44;5042192;28;20565;-55
2022/01/30 11:24:14;;;;;;;8.27;2.65;;;;;;;13.30;100.00;98796.53;5044701;28;20056;-54
2022/01/30 11:26:40;;;;;;;17.65;2.40;;;;;;;12.18;100.00;98803.25;5044299;28;20039;-55
2022/01/30 11:29:10;;;;;;;8.65;2.30;;;;;;;13.92;100.00;98796.69;5044860;28;20029;-55
2022/01/30 11:31:36;;;;;;;10.43;2.60;;;;;;;11.14;100.00;98804.88;5040337;28;20446;-56
2022/01/30 11:34:02;;;;;;;10.20;2.53;;;;;;;9.62;100.00;98802.03;5042740;28;20475;-56
2022/01/30 11:36:29;;;;;;;8.48;2.35;;;;;;;10.28;100.00;98807.31;5043520;28;20036;-54
2022/01/30 11:38:54;;;;;;;9.23;2.40;;;;;;;11.58;100.00;98805.25;5043808;28;20029;-54
2022/01/30 11:41:20;;;;;;;8.27;2.40;;;;;;;12.42;100.00;98804.16;5043918;28;20664;-56
2022/01/30 11:44:18;;;;;;;12.50;2.85;;;;;;;11.35;100.00;98804.19;5044315;28;20111;-55
2022/01/30 11:46:53;;;;;;;9.45;2.33;;;;;;;11.38;100.00;98801.50;5031515;28;20068;-55
2022/01/30 11:49:19;;;;;;;10.07;2.58;;;;;;;11.85;100.00;98792.16;5043152;28;20026;-54
2022/01/30 11:51:47;;;;;;;7.82;2.53;;;;;;;15.73;100.00;98802.50;5040038;28;20040;-56
2022/01/30 11:54:35;;;;;;;6.65;1.92;;;;;;;12.35;100.00;98792.19;5041946;28;20094;-54
2022/01/30 11:57:02;;;;;;;6.25;2.35;;;;;;;11.57;100.00;98790.47;5043472;28;20538;-56
2022/01/30 11:59:38;;;;;;;9.50;2.60;;;;;;;10.76;100.00;98783.38;5043535;28;20063;-55
2022/01/30 12:02:35;;;;;;;9.70;2.47;;;;;;;10.93;100.00;98791.56;5041626;28;20069;-54
2022/01/30 12:05:07;;;;;;;7.47;2.20;;;;;;;10.94;100.00;98785.44;5044121;28;20029;-56
2022/01/30 12:07:44;;;;;;;9.55;2.80;;;;;;;13.90;100.00;98779.31;5039414;28;20144;-55
2022/01/30 12:10:21;;;;;;;5.45;2.10;;;;;;;18.42;100.00;98781.75;5042595;28;20031;-55
2022/01/30 12:12:52;;;;;;;5.05;1.90;;;;;;;20.35;100.00;98780.84;5041079;28;20494;-54
2022/01/30 12:15:43;;;;;;;13.77;2.40;;;;;;;18.47;100.00;98777.00;5041065;28;20036;-54
2022/01/30 12:18:13;;;;;;;7.18;2.47;;;;;;;16.25;100.00;98781.50;5043208;28;20582;-55
2022/01/30 12:20:59;;;;;;;6.45;2.20;;;;;;;19.66;100.00;98775.69;5043242;28;20481;-56
2022/01/30 12:23:51;;;;;;;10.55;2.33;;;;;;;20.61;100.00;98760.50;5042448;28;20422;-55
2022/01/30 12:26:16;;;;;;;5.47;2.20;;;;;;;20.05;97.53;98758.13;5038935;28;20041;-55
2022/01/30 12:28:52;;;;;;;9.05;2.35;;;;;;;17.54;100.00;98757.84;5043457;28;20066;-55
2022/01/30 12:31:25;;;;;;;6.47;2.50;;;;;;;18.97;81.13;98761.66;5042430;28;20033;-56
2022/01/30 12:33:59;;;;;;;7.05;2.40;;;;;;;19.54;87.20;98758.00;5043037;28;20526;-56